Time;durP1;ratioP1;P1;durP2;ratioP2;P2;SDS_P1;SDS_P2;PMS_P1;PMS_P2;Temp;Humidity;BMP_temperature;BMP_pressure;BME280_temperature;BME280_humidity;BME280_pressure;Samples;Min_cycle;Max_cycle;Signal;HPM_P1;HPM_P2
2023/01/11 00:00:24;;;;;;;51.92;25.65;;;3.10;99.90;;;;;;4954475;28;20419;-84
2023/01/11 00:02:57;;;;;;;50.85;24.23;;;3.00;99.90;;;;;;4953474;28;20429;-82
2023/01/11 00:05:23;;;;;;;57.60;28.85;;;3.00;99.90;;;;;;4972647;28;20023;-82
2023/01/11 00:07:49;;;;;;;64.07;30.73;;;3.00;99.90;;;;;;4956863;28;20443;-82
2023/01/11 00:10:15;;;;;;;60.25;28.52;;;3.00;99.90;;;;;;4957070;28;20047;-83
2023/01/11 00:12:40;;;;;;;56.08;28.15;;;3.00;99.90;;;;;;4957004;28;20023;-82
2023/01/11 00:15:07;;;;;;;52.42;25.20;;;3.00;99.90;;;;;;4957166;28;20031;-84
2023/01/11 00:17:32;;;;;;;68.90;28.73;;;3.00;99.90;;;;;;4974185;28;20537;-83
2023/01/11 00:19:58;;;;;;;72.63;31.23;;;3.00;99.90;;;;;;4974172;28;20019;-83
2023/01/11 00:22:23;;;;;;;68.78;33.15;;;3.00;99.90;;;;;;4956633;28;20579;-84
2023/01/11 00:24:49;;;;;;;66.72;31.95;;;3.00;99.90;;;;;;4957105;28;20030;-82
2023/01/11 00:27:14;;;;;;;63.13;30.85;;;3.00;99.90;;;;;;4974045;28;20035;-83
2023/01/11 00:29:40;;;;;;;76.43;36.17;;;3.00;99.90;;;;;;4956359;28;20425;-84
2023/01/11 00:32:06;;;;;;;59.80;28.05;;;3.10;99.90;;;;;;4968147;28;20095;-83
2023/01/11 00:34:31;;;;;;;56.67;28.08;;;3.10;99.90;;;;;;4993666;28;20052;-84
2023/01/11 00:36:57;;;;;;;69.63;32.85;;;3.10;99.90;;;;;;4999092;28;20474;-84
2023/01/11 00:39:22;;;;;;;70.18;32.70;;;3.10;99.90;;;;;;4971607;28;20027;-84
2023/01/11 00:50:01;;;;;;;62.90;31.17;;;3.10;99.90;;;;;;4974007;28;20076;-84
2023/01/11 00:52:27;;;;;;;64.60;32.78;;;3.10;99.90;;;;;;4956278;28;20019;-83
2023/01/11 00:54:52;;;;;;;83.53;39.25;;;3.20;99.90;;;;;;4974287;28;20030;-84
2023/01/11 00:57:18;;;;;;;107.63;43.00;;;3.10;99.90;;;;;;4973479;28;20027;-83
2023/01/11 00:59:44;;;;;;;70.93;32.40;;;3.10;99.90;;;;;;5057653;28;20023;-83
2023/01/11 01:02:11;;;;;;;68.88;32.60;;;3.10;99.90;;;;;;4956333;28;20023;-82
2023/01/11 01:04:37;;;;;;;73.38;30.80;;;3.20;99.90;;;;;;4973454;28;20073;-83
2023/01/11 01:07:03;;;;;;;84.15;36.65;;;3.10;99.90;;;;;;5049606;28;20067;-83
2023/01/11 01:09:29;;;;;;;65.93;31.88;;;3.20;99.90;;;;;;4966029;28;20054;-84
2023/01/11 01:11:55;;;;;;;65.00;31.25;;;3.20;99.90;;;;;;4973179;28;20047;-81
2023/01/11 01:14:29;;;;;;;58.05;28.83;;;3.20;99.90;;;;;;4973839;28;20370;-84
2023/01/11 01:16:58;;;;;;;58.95;27.70;;;3.20;99.90;;;;;;4955597;28;20023;-83
2023/01/11 01:19:26;;;;;;;53.20;24.85;;;3.20;99.90;;;;;;4956336;28;20435;-82
2023/01/11 01:21:54;;;;;;;55.97;26.23;;;3.20;99.90;;;;;;4956409;28;20031;-83
2023/01/11 01:24:19;;;;;;;59.20;26.77;;;3.20;99.90;;;;;;4990216;28;20500;-83
2023/01/11 01:26:45;;;;;;;53.08;26.38;;;3.20;99.90;;;;;;4992577;28;20049;-83
2023/01/11 01:29:11;;;;;;;59.65;29.88;;;3.20;99.90;;;;;;4975104;28;20411;-82
2023/01/11 01:31:37;;;;;;;57.95;26.95;;;3.20;99.90;;;;;;4975727;28;20446;-82
2023/01/11 01:34:02;;;;;;;58.50;29.10;;;3.20;99.90;;;;;;4975125;28;20031;-82
2023/01/11 01:36:28;;;;;;;62.72;27.55;;;3.20;99.90;;;;;;4977953;28;20026;-83
2023/01/11 01:38:54;;;;;;;59.35;29.35;;;3.20;99.90;;;;;;4994561;28;20030;-82
2023/01/11 01:41:19;;;;;;;60.15;28.83;;;3.20;99.90;;;;;;4973330;28;20080;-83
2023/01/11 01:43:56;;;;;;;60.78;29.42;;;3.20;99.90;;;;;;4972901;28;20031;-83
2023/01/11 01:46:26;;;;;;;69.22;29.40;;;3.20;99.90;;;;;;4973245;28;20380;-83
2023/01/11 01:49:07;;;;;;;55.88;27.35;;;3.20;99.90;;;;;;4955579;28;20031;-83
2023/01/11 01:51:42;;;;;;;58.28;27.45;;;3.20;99.90;;;;;;4955594;28;20023;-83
2023/01/11 01:54:13;;;;;;;49.38;25.73;;;3.20;99.90;;;;;;4955234;28;20023;-83
2023/01/11 01:56:46;;;;;;;63.85;30.05;;;3.20;99.90;;;;;;4955766;28;20377;-84
2023/01/11 01:59:15;;;;;;;68.45;32.25;;;3.20;99.90;;;;;;4970914;28;20019;-82
2023/01/11 02:01:47;;;;;;;78.57;34.95;;;3.20;99.90;;;;;;4992133;28;20025;-83
2023/01/11 02:04:30;;;;;;;70.63;35.55;;;3.20;99.90;;;;;;4974859;28;20019;-83
2023/01/11 02:07:05;;;;;;;71.78;33.22;;;3.20;99.90;;;;;;4974202;28;20491;-83
2023/01/11 02:10:06;;;;;;;67.13;33.90;;;3.20;99.90;;;;;;4974802;28;20052;-83
2023/01/11 02:12:39;;;;;;;64.53;32.38;;;3.20;99.90;;;;;;4991939;28;20031;-82
2023/01/11 02:15:08;;;;;;;67.00;34.45;;;3.20;99.90;;;;;;4974936;28;20122;-84
2023/01/11 02:17:33;;;;;;;66.18;30.13;;;3.20;99.90;;;;;;4974386;28;20105;-84
2023/01/11 02:20:16;;;;;;;54.45;27.33;;;3.20;99.90;;;;;;4974971;28;20467;-85
2023/01/11 02:22:45;;;;;;;56.03;26.27;;;3.20;99.90;;;;;;4991672;28;20027;-84
2023/01/11 02:25:29;;;;;;;60.03;26.13;;;3.20;99.90;;;;;;4991700;28;20027;-83
2023/01/11 02:28:08;;;;;;;53.78;24.77;;;3.10;99.90;;;;;;4990605;28;20171;-84
2023/01/11 02:31:06;;;;;;;47.63;23.95;;;3.10;99.90;;;;;;4992073;28;20050;-84
2023/01/11 02:34:03;;;;;;;55.05;26.50;;;3.10;99.90;;;;;;4974103;28;20056;-84
2023/01/11 02:36:38;;;;;;;52.60;26.70;;;3.10;99.90;;;;;;4995221;28;20071;-83
2023/01/11 02:39:21;;;;;;;54.35;27.02;;;3.10;99.90;;;;;;4975345;28;20019;-83
2023/01/11 02:45:15;;;;;;;47.03;24.00;;;3.10;99.90;;;;;;4972745;28;20042;-82
2023/01/11 02:47:50;;;;;;;45.20;24.52;;;3.10;99.90;;;;;;4954466;28;20053;-83
2023/01/11 02:50:21;;;;;;;47.38;23.33;;;3.10;99.90;;;;;;4972240;28;20019;-82
2023/01/11 02:52:59;;;;;;;53.03;23.58;;;3.10;99.90;;;;;;4971822;28;20030;-83
2023/01/11 02:55:29;;;;;;;56.72;24.52;;;3.10;99.90;;;;;;4972206;28;20502;-83
2023/01/11 02:57:57;;;;;;;50.15;23.90;;;3.10;99.90;;;;;;4954522;28;20035;-83
2023/01/11 03:00:24;;;;;;;44.65;22.55;;;3.10;99.90;;;;;;4972116;28;20019;-83
2023/01/11 03:03:07;;;;;;;54.67;26.23;;;3.00;99.90;;;;;;4954484;28;20034;-84
2023/01/11 03:05:38;;;;;;;50.10;25.02;;;3.10;99.90;;;;;;4954630;28;20027;-82
2023/01/11 03:08:24;;;;;;;51.63;24.65;;;3.10;99.90;;;;;;4954165;28;20058;-82
2023/01/11 03:11:06;;;;;;;56.53;25.23;;;3.10;99.90;;;;;;4967575;28;20054;-83
2023/01/11 03:13:49;;;;;;;60.88;26.67;;;3.10;99.90;;;;;;4990837;28;20547;-84
2023/01/11 03:16:24;;;;;;;52.60;28.55;;;3.10;99.90;;;;;;4991273;28;20030;-84
2023/01/11 03:18:59;;;;;;;61.47;27.83;;;3.10;99.90;;;;;;4990831;28;20060;-84
2023/01/11 03:21:34;;;;;;;58.50;28.92;;;3.10;99.90;;;;;;4991261;28;20038;-82
2023/01/11 03:24:12;;;;;;;51.17;25.92;;;3.10;99.90;;;;;;4990589;28;20076;-84
2023/01/11 03:26:48;;;;;;;51.47;24.27;;;3.10;99.90;;;;;;4991009;28;20031;-82
2023/01/11 03:29:35;;;;;;;52.13;25.05;;;3.10;99.90;;;;;;4973275;28;20476;-82
2023/01/11 03:32:17;;;;;;;53.58;26.33;;;3.00;99.90;;;;;;4991103;28;20023;-82
2023/01/11 03:34:56;;;;;;;48.88;24.95;;;3.00;99.90;;;;;;4973411;28;20543;-84
2023/01/11 03:37:28;;;;;;;52.10;26.33;;;3.00;99.90;;;;;;5008060;28;20020;-82
2023/01/11 03:40:17;;;;;;;58.85;27.80;;;2.90;99.90;;;;;;4975386;28;20440;-84
2023/01/11 03:45:34;;;;;;;55.55;24.77;;;2.90;99.90;;;;;;4978155;28;20045;-85
2023/01/11 03:48:03;;;;;;;55.92;25.45;;;2.90;99.90;;;;;;4977598;28;20374;-82
2023/01/11 03:50:31;;;;;;;54.88;25.25;;;2.90;99.90;;;;;;4960337;28;20050;-82
2023/01/11 03:52:59;;;;;;;71.63;28.52;;;2.90;99.90;;;;;;4965711;28;20023;-85
2023/01/11 03:55:28;;;;;;;73.28;31.88;;;2.90;99.90;;;;;;4997223;28;20080;-82
2023/01/11 03:57:54;;;;;;;72.20;31.48;;;2.90;99.90;;;;;;4996900;28;20030;-82
2023/01/11 04:00:23;;;;;;;76.38;32.42;;;2.90;99.90;;;;;;4997188;28;20030;-84
2023/01/11 04:02:52;;;;;;;75.20;31.20;;;3.00;99.90;;;;;;4979410;28;20483;-85
2023/01/11 04:05:18;;;;;;;64.50;29.80;;;2.90;99.90;;;;;;4996937;28;20046;-85
2023/01/11 04:07:43;;;;;;;61.05;28.70;;;2.90;99.90;;;;;;4996753;28;20487;-83
2023/01/11 04:10:10;;;;;;;73.00;30.85;;;2.90;99.90;;;;;;4979531;28;20046;-82
2023/01/11 04:12:35;;;;;;;62.13;29.73;;;2.90;99.90;;;;;;4996906;28;20102;-82
2023/01/11 04:15:02;;;;;;;59.90;25.80;;;2.90;99.90;;;;;;4979867;28;20054;-82
2023/01/11 04:17:28;;;;;;;63.25;26.70;;;2.90;99.90;;;;;;4996277;28;20470;-81
2023/01/11 04:19:53;;;;;;;61.70;26.92;;;2.90;99.90;;;;;;4997079;28;20109;-83
2023/01/11 04:22:19;;;;;;;57.38;25.23;;;2.90;99.90;;;;;;4979137;28;20233;-82
2023/01/11 04:24:44;;;;;;;55.72;24.55;;;2.90;99.90;;;;;;4996837;28;20050;-82
2023/01/11 04:27:10;;;;;;;54.67;26.58;;;2.90;99.90;;;;;;4979090;28;20476;-83
2023/01/11 04:29:35;;;;;;;63.25;27.08;;;2.80;99.90;;;;;;4979358;28;20527;-84
2023/01/11 04:32:02;;;;;;;56.70;24.60;;;2.80;99.90;;;;;;4979073;28;20034;-83
2023/01/11 04:34:28;;;;;;;55.58;26.55;;;2.80;99.90;;;;;;4979088;28;20065;-84
2023/01/11 04:36:53;;;;;;;58.08;25.10;;;2.80;99.90;;;;;;5017111;28;20051;-82
2023/01/11 04:39:19;;;;;;;55.17;24.67;;;2.80;99.90;;;;;;4994919;28;20019;-82
2023/01/11 04:44:28;;;;;;;88.10;33.45;;;2.80;99.90;;;;;;4977507;28;20073;-81
2023/01/11 04:46:54;;;;;;;73.88;31.50;;;2.80;99.90;;;;;;5060770;28;20089;-84
2023/01/11 04:49:20;;;;;;;78.90;32.92;;;2.80;99.90;;;;;;4976983;28;20035;-84
2023/01/11 04:51:45;;;;;;;119.22;43.63;;;2.80;99.90;;;;;;4973921;28;20072;-84
2023/01/11 04:54:11;;;;;;;86.18;35.25;;;2.80;99.90;;;;;;5028446;28;20397;-84
2023/01/11 04:56:36;;;;;;;96.78;35.35;;;2.80;99.90;;;;;;5077902;28;20508;-83
2023/01/11 04:59:02;;;;;;;69.20;30.13;;;2.80;99.90;;;;;;4988002;28;20019;-84
2023/01/11 05:01:28;;;;;;;79.28;31.42;;;2.80;99.90;;;;;;4956438;28;20124;-83
2023/01/11 05:03:54;;;;;;;83.13;30.40;;;2.80;99.90;;;;;;4973513;28;20027;-83
2023/01/11 05:06:21;;;;;;;153.35;40.70;;;2.80;99.90;;;;;;4973657;28;20102;-84
2023/01/11 05:08:47;;;;;;;63.95;28.48;;;2.80;99.90;;;;;;4973325;28;20031;-83
2023/01/11 05:11:14;;;;;;;79.18;31.48;;;2.80;99.90;;;;;;4973150;28;20083;-83
2023/01/11 05:13:43;;;;;;;68.93;28.13;;;2.80;99.90;;;;;;4973312;28;20027;-83
2023/01/11 05:16:12;;;;;;;72.53;29.73;;;2.80;99.90;;;;;;4973450;28;20101;-83
2023/01/11 05:18:42;;;;;;;66.18;28.33;;;2.80;99.90;;;;;;4955728;28;20031;-84
2023/01/11 05:21:10;;;;;;;165.00;37.85;;;2.80;99.90;;;;;;4973530;28;20034;-84
2023/01/11 05:23:36;;;;;;;71.10;28.15;;;2.80;99.90;;;;;;4973293;28;20026;-82
2023/01/11 05:26:06;;;;;;;87.78;29.77;;;2.80;99.90;;;;;;4973551;28;20023;-83
2023/01/11 05:28:32;;;;;;;73.50;28.15;;;2.80;99.90;;;;;;4955731;28;20442;-83
2023/01/11 05:30:58;;;;;;;135.63;37.63;;;2.80;99.90;;;;;;4956117;28;20463;-82
2023/01/11 05:33:23;;;;;;;121.68;34.75;;;2.80;99.90;;;;;;5056445;28;20143;-82
2023/01/11 05:35:49;;;;;;;168.63;41.22;;;2.80;99.90;;;;;;4973171;28;20054;-82
2023/01/11 05:38:15;;;;;;;118.93;36.03;;;2.80;99.90;;;;;;4988803;28;20031;-82
2023/01/11 05:40:40;;;;;;;110.90;35.33;;;2.80;99.90;;;;;;4955965;28;20030;-84
2023/01/11 05:43:06;;;;;;;83.68;27.35;;;2.80;99.90;;;;;;4955529;28;20037;-84
2023/01/11 05:45:32;;;;;;;86.18;27.50;;;2.80;99.90;;;;;;5056505;28;20027;-83
2023/01/11 05:47:58;;;;;;;74.43;27.58;;;2.80;99.90;;;;;;4955508;28;20026;-82
2023/01/11 05:50:24;;;;;;;71.88;28.02;;;2.70;99.90;;;;;;5006946;28;20944;-84
2023/01/11 05:52:50;;;;;;;64.25;27.95;;;2.70;99.90;;;;;;5037830;28;20050;-84
2023/01/11 05:55:16;;;;;;;73.93;29.70;;;2.70;99.90;;;;;;4955658;28;20468;-83
2023/01/11 05:57:43;;;;;;;71.22;29.17;;;2.80;99.90;;;;;;4955157;28;20096;-83
2023/01/11 06:00:10;;;;;;;77.57;31.23;;;2.80;99.90;;;;;;4955651;28;20035;-84
2023/01/11 06:02:36;;;;;;;76.72;29.17;;;2.80;99.90;;;;;;4971020;28;20033;-83
2023/01/11 06:05:03;;;;;;;112.63;35.50;;;2.70;99.90;;;;;;5001517;28;20031;-83
2023/01/11 06:07:28;;;;;;;59.05;27.38;;;2.70;99.90;;;;;;5037866;28;20030;-85
2023/01/11 06:09:54;;;;;;;72.13;28.17;;;2.70;99.90;;;;;;5055916;28;20030;-84
2023/01/11 06:12:20;;;;;;;118.72;33.78;;;2.70;99.90;;;;;;4955042;28;20019;-82
2023/01/11 06:14:45;;;;;;;84.60;30.20;;;2.70;99.90;;;;;;4973195;28;20023;-84
2023/01/11 06:17:11;;;;;;;132.52;34.30;;;2.70;99.90;;;;;;4955026;28;20050;-82
2023/01/11 06:19:37;;;;;;;188.23;41.20;;;2.60;99.90;;;;;;4973093;28;20027;-82
2023/01/11 06:22:02;;;;;;;116.63;32.33;;;2.60;99.90;;;;;;5055331;28;20030;-82
2023/01/11 06:24:28;;;;;;;194.48;39.83;;;2.50;99.90;;;;;;4955421;28;20404;-82
2023/01/11 06:26:54;;;;;;;251.45;45.45;;;2.50;99.90;;;;;;5055432;28;20137;-82
2023/01/11 06:29:20;;;;;;;203.07;40.55;;;2.40;99.90;;;;;;4972549;28;20019;-82
2023/01/11 06:31:45;;;;;;;253.45;44.35;;;2.30;99.90;;;;;;4954771;28;20015;-82
2023/01/11 06:34:11;;;;;;;189.98;37.00;;;2.30;99.90;;;;;;4972392;28;20027;-82
2023/01/11 06:36:37;;;;;;;101.15;27.08;;;2.30;99.90;;;;;;4982471;28;20497;-83
2023/01/11 06:39:03;;;;;;;90.57;26.83;;;2.30;99.90;;;;;;5075543;28;20028;-81
2023/01/11 06:41:29;;;;;;;135.65;32.80;;;2.30;99.90;;;;;;5061976;28;20080;-81
2023/01/11 06:43:55;;;;;;;257.25;44.88;;;2.30;99.90;;;;;;4991299;28;20034;-84
2023/01/11 06:46:20;;;;;;;163.85;37.40;;;2.30;99.90;;;;;;4974133;28;20072;-82
2023/01/11 06:48:47;;;;;;;286.98;76.57;;;2.30;99.90;;;;;;4973885;28;20038;-81
2023/01/11 06:51:14;;;;;;;160.88;56.65;;;2.30;99.90;;;;;;4971983;28;20014;-82
2023/01/11 06:53:41;;;;;;;133.77;37.10;;;2.30;99.90;;;;;;4989061;28;20029;-81
2023/01/11 06:56:07;;;;;;;130.30;36.97;;;2.30;99.90;;;;;;4989734;28;20063;-82
2023/01/11 06:58:32;;;;;;;142.63;36.00;;;2.30;99.90;;;;;;4972272;28;20479;-79
2023/01/11 07:00:58;;;;;;;196.88;42.05;;;2.20;99.90;;;;;;4973065;28;20019;-79
2023/01/11 07:03:24;;;;;;;208.88;38.65;;;2.20;99.90;;;;;;4990263;28;20499;-81
2023/01/11 07:05:55;;;;;;;220.50;37.47;;;2.20;99.90;;;;;;4973623;28;20476;-79
2023/01/11 07:08:21;;;;;;;189.10;35.10;;;2.20;99.90;;;;;;4973617;28;20031;-79
2023/01/11 07:10:47;;;;;;;184.40;38.88;;;2.10;99.90;;;;;;4991433;28;20534;-81
2023/01/11 07:13:15;;;;;;;114.05;25.50;;;2.10;99.90;;;;;;4973520;28;20183;-81
2023/01/11 07:15:47;;;;;;;116.25;25.90;;;2.10;99.90;;;;;;4989178;28;20091;-81
2023/01/11 07:18:13;;;;;;;110.43;27.02;;;2.10;99.90;;;;;;4988977;28;20105;-79
2023/01/11 07:20:39;;;;;;;53.03;24.08;;;2.00;99.90;;;;;;4971727;28;20396;-79
2023/01/11 07:23:06;;;;;;;60.47;22.75;;;2.00;99.90;;;;;;4988835;28;20121;-79
2023/01/11 07:25:33;;;;;;;89.13;25.13;;;2.00;99.90;;;;;;4989162;28;20471;-79
2023/01/11 07:28:00;;;;;;;62.17;21.70;;;2.00;99.90;;;;;;4988835;28;20038;-81
2023/01/11 07:30:28;;;;;;;43.30;18.80;;;2.00;99.90;;;;;;4990745;28;20022;-81
2023/01/11 07:32:57;;;;;;;52.35;20.75;;;2.00;99.90;;;;;;4991012;28;20031;-79
2023/01/11 07:35:22;;;;;;;82.85;22.48;;;1.90;99.90;;;;;;4973708;28;20459;-81
2023/01/11 07:37:48;;;;;;;63.63;22.92;;;1.80;99.90;;;;;;4990873;28;20076;-79
2023/01/11 07:40:16;;;;;;;42.25;18.60;;;1.80;99.90;;;;;;4991050;28;20049;-79
2023/01/11 07:45:35;;;;;;;32.55;16.90;;;1.70;99.90;;;;;;4991264;28;20039;-81
2023/01/11 07:48:04;;;;;;;37.17;16.23;;;1.60;99.90;;;;;;4973078;28;20060;-81
2023/01/11 07:50:30;;;;;;;35.08;17.48;;;1.60;99.90;;;;;;4990916;28;20030;-79
2023/01/11 07:52:56;;;;;;;42.90;22.00;;;1.70;99.90;;;;;;4973176;28;20133;-79
2023/01/11 07:55:21;;;;;;;66.47;22.15;;;1.60;99.90;;;;;;4990873;28;20399;-79
2023/01/11 07:57:47;;;;;;;64.43;20.38;;;1.60;99.90;;;;;;4973046;28;20046;-81
2023/01/11 08:00:13;;;;;;;63.33;19.67;;;1.60;99.90;;;;;;4991005;28;20026;-79
2023/01/11 08:02:39;;;;;;;68.63;22.73;;;1.50;99.90;;;;;;4990451;28;20011;-81
2023/01/11 08:05:05;;;;;;;33.08;16.10;;;1.50;99.90;;;;;;4973454;28;20086;-79
2023/01/11 08:07:31;;;;;;;28.63;15.35;;;1.40;99.90;;;;;;4990355;28;20045;-81
2023/01/11 08:09:56;;;;;;;27.48;15.15;;;1.40;99.90;;;;;;4990670;28;20042;-80
2023/01/11 08:15:09;;;;;;;35.33;15.43;;;1.60;99.90;;;;;;4990964;28;20115;-81
2023/01/11 08:17:35;;;;;;;32.42;18.17;;;1.70;99.90;;;;;;4990125;28;20029;-81
2023/01/11 08:20:01;;;;;;;33.17;17.63;;;1.80;99.90;;;;;;4973022;28;20061;-79
2023/01/11 08:22:26;;;;;;;36.67;20.88;;;1.90;99.90;;;;;;4972845;28;20486;-81
2023/01/11 08:24:52;;;;;;;38.38;19.45;;;1.90;99.90;;;;;;4973181;28;20026;-81
2023/01/11 08:27:17;;;;;;;31.50;16.70;;;2.00;99.90;;;;;;4992599;28;20030;-79
2023/01/11 08:29:43;;;;;;;35.80;18.25;;;2.10;99.90;;;;;;4976399;28;20026;-81
2023/01/11 08:32:09;;;;;;;33.75;17.30;;;2.20;99.90;;;;;;4993398;28;20023;-78
2023/01/11 08:34:35;;;;;;;31.90;16.73;;;2.30;99.90;;;;;;4993832;28;20019;-81
2023/01/11 08:37:01;;;;;;;31.83;16.52;;;2.40;99.90;;;;;;4993405;28;20028;-79
2023/01/11 08:39:29;;;;;;;30.40;16.45;;;2.50;99.90;;;;;;4976168;28;20027;-79
2023/01/11 08:41:56;;;;;;;30.85;16.60;;;2.60;99.90;;;;;;4993668;28;20061;-80
2023/01/11 08:44:22;;;;;;;31.45;16.42;;;2.70;99.90;;;;;;4993411;28;20067;-79
2023/01/11 08:46:47;;;;;;;32.47;17.25;;;2.80;99.90;;;;;;4993323;28;20071;-79
2023/01/11 08:49:13;;;;;;;32.75;16.45;;;2.90;99.90;;;;;;4993680;28;20026;-81
2023/01/11 08:51:39;;;;;;;31.90;17.27;;;2.90;99.90;;;;;;4976100;28;20046;-81
2023/01/11 08:54:09;;;;;;;30.80;16.92;;;3.10;99.90;;;;;;4993226;28;20026;-79
2023/01/11 08:56:35;;;;;;;35.60;18.60;;;3.10;99.90;;;;;;4993432;28;20029;-79
2023/01/11 08:59:02;;;;;;;34.20;18.23;;;3.10;99.90;;;;;;4992913;28;20492;-79
2023/01/11 09:01:28;;;;;;;32.28;16.50;;;3.20;99.90;;;;;;4975917;28;20030;-79
2023/01/11 09:03:54;;;;;;;31.23;16.27;;;3.20;99.90;;;;;;4992894;28;20384;-79
2023/01/11 09:06:21;;;;;;;35.13;19.55;;;3.30;99.90;;;;;;4993300;28;20507;-79
2023/01/11 09:08:46;;;;;;;30.83;17.00;;;3.30;99.90;;;;;;4975512;28;20045;-81
2023/01/11 09:13:56;;;;;;;31.42;18.10;;;3.50;99.90;;;;;;4993247;28;20029;-81
2023/01/11 09:16:22;;;;;;;26.67;16.98;;;3.60;99.90;;;;;;4993159;28;20113;-81
2023/01/11 09:18:47;;;;;;;31.40;16.10;;;3.60;99.90;;;;;;4992896;28;20048;-79
2023/01/11 09:21:13;;;;;;;30.05;17.15;;;3.70;99.90;;;;;;4975583;28;20029;-79
2023/01/11 09:23:39;;;;;;;29.95;16.67;;;3.80;99.90;;;;;;4992830;28;20029;-79
2023/01/11 09:26:04;;;;;;;24.75;13.40;;;3.80;99.90;;;;;;4975643;28;20372;-81
2023/01/11 09:28:30;;;;;;;30.50;16.35;;;3.80;99.90;;;;;;4975046;28;20061;-80
2023/01/11 09:30:56;;;;;;;23.50;13.30;;;3.90;99.90;;;;;;4975610;28;20369;-80
2023/01/11 09:33:21;;;;;;;25.38;12.38;;;3.90;99.90;;;;;;5003999;28;20019;-81
2023/01/11 09:35:48;;;;;;;24.63;13.57;;;4.00;99.90;;;;;;4992801;28;20019;-79
2023/01/11 09:38:14;;;;;;;22.40;13.50;;;4.00;99.90;;;;;;4980303;28;20027;-81
2023/01/11 09:40:48;;;;;;;22.15;11.40;;;4.10;99.90;;;;;;4973459;28;20030;-81
2023/01/11 09:43:15;;;;;;;21.90;14.00;;;4.10;99.90;;;;;;4973092;28;20027;-79
2023/01/11 09:45:45;;;;;;;19.33;11.38;;;4.10;99.90;;;;;;4973352;28;20038;-80
2023/01/11 09:48:37;;;;;;;19.23;11.05;;;4.20;99.90;;;;;;4980014;28;20043;-79
2023/01/11 09:51:03;;;;;;;18.05;11.57;;;4.20;99.90;;;;;;4991448;28;20484;-79
2023/01/11 09:53:35;;;;;;;24.48;12.52;;;4.30;99.90;;;;;;4992423;28;20027;-79
2023/01/11 09:56:04;;;;;;;25.40;13.18;;;4.30;99.90;;;;;;4992704;28;20034;-81
2023/01/11 09:58:45;;;;;;;23.17;13.40;;;4.30;99.90;;;;;;4991910;28;20018;-79
2023/01/11 10:01:20;;;;;;;26.55;12.90;;;4.40;99.90;;;;;;4992550;28;20026;-81
2023/01/11 10:04:19;;;;;;;19.48;10.95;;;4.30;99.90;;;;;;4970057;28;20031;-81
2023/01/11 10:07:09;;;;;;;25.88;14.23;;;4.40;99.90;;;;;;4972917;28;20061;-81
2023/01/11 10:09:59;;;;;;;28.55;14.85;;;4.50;99.90;;;;;;4990340;28;20034;-79
2023/01/11 10:13:04;;;;;;;23.50;12.55;;;4.50;99.90;;;;;;4951851;28;20054;-81
2023/01/11 10:15:58;;;;;;;25.58;13.38;;;4.60;99.90;;;;;;4956800;28;20134;-79
2023/01/11 10:18:35;;;;;;;25.70;15.50;;;4.60;99.90;;;;;;4951998;28;20469;-81
2023/01/11 10:21:30;;;;;;;20.40;11.00;;;4.60;99.90;;;;;;4952152;29;20031;-80
2023/01/11 10:24:16;;;;;;;26.45;14.05;;;4.70;99.90;;;;;;4935849;28;20118;-81
2023/01/11 10:26:42;;;;;;;20.98;12.73;;;4.70;99.90;;;;;;4953338;28;20031;-81
2023/01/11 10:32:02;;;;;;;21.15;13.43;;;4.80;99.90;;;;;;4952898;28;20390;-80
2023/01/11 10:37:49;;;;;;;19.58;11.85;;;4.90;99.90;;;;;;4958344;28;20121;-80
2023/01/11 10:41:01;;;;;;;24.48;13.13;;;4.80;99.90;;;;;;4952828;28;20035;-80
2023/01/11 10:43:24;;;;;;;23.73;13.05;;;4.90;99.90;;;;;;4952593;28;20034;-80
2023/01/11 10:46:00;;;;;;;24.67;13.43;;;5.00;99.90;;;;;;4952776;28;20164;-80
2023/01/11 10:48:46;;;;;;;21.40;13.38;;;5.00;99.90;;;;;;4950502;28;20428;-80
2023/01/11 10:51:28;;;;;;;19.73;10.68;;;5.00;99.90;;;;;;4952848;28;20097;-80
2023/01/11 10:54:04;;;;;;;20.02;13.43;;;5.00;99.90;;;;;;4951336;28;20489;-80
2023/01/11 10:56:41;;;;;;;19.98;12.60;;;5.00;99.90;;;;;;4951311;28;20027;-80
2023/01/11 10:59:26;;;;;;;23.17;13.27;;;5.00;99.90;;;;;;4952620;28;20055;-79
2023/01/11 11:02:04;;;;;;;18.95;12.05;;;5.10;99.90;;;;;;4951307;28;20500;-80
2023/01/11 11:04:50;;;;;;;23.52;11.95;;;5.10;99.90;;;;;;4952487;28;20023;-80
2023/01/11 11:07:24;;;;;;;17.10;10.38;;;5.20;99.90;;;;;;4952763;28;20035;-80
2023/01/11 11:10:14;;;;;;;22.10;12.18;;;5.10;99.90;;;;;;4954980;28;20480;-80
2023/01/11 11:12:51;;;;;;;18.45;11.02;;;5.20;99.90;;;;;;4973498;28;20130;-80
2023/01/11 11:15:29;;;;;;;17.27;10.55;;;5.20;99.90;;;;;;4973693;28;20023;-80
2023/01/11 11:17:54;;;;;;;21.40;12.65;;;5.20;99.90;;;;;;4991163;28;20117;-79
2023/01/11 11:20:28;;;;;;;18.60;11.00;;;5.10;99.90;;;;;;4990935;28;20110;-80
2023/01/11 11:22:55;;;;;;;19.58;11.55;;;5.10;99.90;;;;;;4973395;28;20117;-80
2023/01/11 11:25:26;;;;;;;21.60;11.55;;;5.20;99.90;;;;;;4991009;28;20027;-79
2023/01/11 11:27:59;;;;;;;19.13;10.77;;;5.20;99.90;;;;;;4990660;28;20035;-79
2023/01/11 11:30:30;;;;;;;23.35;10.65;;;5.20;99.90;;;;;;4973689;28;20034;-81
2023/01/11 11:33:28;;;;;;;19.80;10.77;;;5.20;99.90;;;;;;4993773;28;20118;-82
2023/01/11 11:35:57;;;;;;;22.63;11.25;;;5.10;99.90;;;;;;4994102;28;20500;-82
2023/01/11 11:38:25;;;;;;;18.17;11.20;;;5.10;99.90;;;;;;5022189;28;20035;-82
2023/01/11 11:41:03;;;;;;;16.60;10.85;;;5.00;99.90;;;;;;5093034;28;20017;-82
2023/01/11 11:43:29;;;;;;;17.95;10.23;;;5.00;99.90;;;;;;5029857;28;20029;-81
2023/01/11 11:45:57;;;;;;;21.38;13.38;;;5.00;99.90;;;;;;5003167;28;20054;-82
2023/01/11 11:48:24;;;;;;;22.33;11.40;;;5.00;99.90;;;;;;5004637;28;20432;-82
2023/01/11 11:50:52;;;;;;;21.05;12.77;;;5.00;99.90;;;;;;4973417;28;20369;-82
2023/01/11 11:53:41;;;;;;;19.98;12.23;;;5.00;99.90;;;;;;4972952;28;20073;-82
2023/01/11 11:56:26;;;;;;;28.50;13.23;;;5.00;99.90;;;;;;4991004;28;20451;-82
2023/01/11 11:58:53;;;;;;;21.33;14.30;;;5.00;99.90;;;;;;4957775;28;20029;-82
2023/01/11 12:01:23;;;;;;;26.80;13.82;;;5.00;99.90;;;;;;4992517;28;20531;-82
2023/01/11 12:03:51;;;;;;;26.60;15.23;;;5.00;99.90;;;;;;5060227;28;20030;-82
2023/01/11 12:06:26;;;;;;;27.27;15.68;;;4.90;99.90;;;;;;4993960;28;20036;-82
2023/01/11 12:08:53;;;;;;;25.30;14.82;;;5.00;99.90;;;;;;4992261;28;20079;-82
2023/01/11 12:11:29;;;;;;;30.33;16.58;;;4.90;99.90;;;;;;4993863;28;20084;-82
2023/01/11 12:14:02;;;;;;;31.00;18.15;;;5.00;99.90;;;;;;4976680;28;20117;-82
2023/01/11 12:16:33;;;;;;;;;;;5.00;99.90;;;;;;4993889;28;20015;-81
2023/01/11 12:18:59;;;;;;;26.23;13.70;;;5.10;99.90;;;;;;4993588;28;19910;-81
2023/01/11 12:21:28;;;;;;;37.60;20.27;;;5.10;99.90;;;;;;4990595;28;20080;-82
2023/01/11 12:24:22;;;;;;;30.58;15.13;;;5.00;99.90;;;;;;4991606;28;20429;-82
2023/01/11 12:26:58;;;;;;;25.05;14.80;;;5.00;99.90;;;;;;4992035;28;20022;-82
2023/01/11 12:29:35;;;;;;;26.67;14.85;;;5.00;99.90;;;;;;4975897;28;20040;-82
2023/01/11 12:32:11;;;;;;;31.67;17.85;;;5.00;99.90;;;;;;4993385;28;20105;-82
2023/01/11 12:34:58;;;;;;;27.75;16.00;;;5.10;99.90;;;;;;4975955;28;20048;-82
2023/01/11 12:37:42;;;;;;;31.98;18.65;;;5.10;99.90;;;;;;4975939;28;20031;-81
2023/01/11 12:40:34;;;;;;;29.40;15.63;;;5.20;99.90;;;;;;4993064;28;20484;-82
2023/01/11 12:43:04;;;;;;;32.33;18.17;;;5.20;99.90;;;;;;4992960;28;20503;-82
2023/01/11 12:46:10;;;;;;;30.00;15.52;;;5.30;99.90;;;;;;5022680;28;20033;-82
2023/01/11 12:49:02;;;;;;;28.73;15.07;;;5.30;99.90;;;;;;5003896;28;20076;-82
2023/01/11 12:51:46;;;;;;;23.15;14.45;;;5.20;99.90;;;;;;5006625;28;20035;-82
2023/01/11 12:54:24;;;;;;;26.17;16.05;;;5.20;99.90;;;;;;5030027;28;20023;-82
2023/01/11 12:57:12;;;;;;;24.52;15.02;;;5.20;99.90;;;;;;5030476;28;20032;-82
2023/01/11 13:00:01;;;;;;;28.38;15.18;;;5.20;99.90;;;;;;5039009;28;20029;-82
2023/01/11 13:03:14;;;;;;;31.10;16.38;;;5.30;99.90;;;;;;5036214;28;20018;-81
2023/01/11 13:06:05;;;;;;;26.93;16.27;;;5.30;99.90;;;;;;5006071;28;20030;-82
2023/01/11 13:08:51;;;;;;;25.95;16.38;;;5.30;99.90;;;;;;5034106;28;20762;-82
2023/01/11 13:11:51;;;;;;;26.27;15.57;;;5.20;99.90;;;;;;5036013;28;20547;-83
2023/01/11 13:14:27;;;;;;;27.98;16.52;;;5.30;99.90;;;;;;5024799;28;20082;-83
2023/01/11 13:17:07;;;;;;;36.33;17.85;;;5.30;99.90;;;;;;5019104;28;20126;-83
2023/01/11 13:19:55;;;;;;;35.17;18.27;;;5.20;99.90;;;;;;5014279;28;20024;-82
2023/01/11 13:22:28;;;;;;;42.22;21.58;;;5.20;99.90;;;;;;5007461;28;20039;-82
2023/01/11 13:24:55;;;;;;;34.80;19.85;;;5.20;99.90;;;;;;5000467;28;20030;-82
2023/01/11 13:27:23;;;;;;;34.45;19.60;;;5.20;99.90;;;;;;5026566;28;20060;-82